Time;durP1;ratioP1;P1;durP2;ratioP2;P2;SDS_P1;SDS_P2;PMS_P1;PMS_P2;Temp;Humidity;BMP_temperature;BMP_pressure;BME280_temperature;BME280_humidity;BME280_pressure;Samples;Min_cycle;Max_cycle;Signal;HPM_P1;HPM_P2
2021/09/16 03:01:34;;;;;;;1999.90;180.00;;;14.80;99.90;;;;;;6078373;23;20401;31
2021/09/16 04:06:25;;;;;;;;;;;;;;;;;;;;;
2021/09/16 04:15:14;;;;;;;777.95;119.50;;;15.00;99.90;;;;;;5037043;23;20445;-95
2021/09/16 04:29:27;;;;;;;263.30;84.77;;;14.90;99.90;;;;;;5082053;23;20446;-96
2021/09/16 04:32:11;;;;;;;231.40;78.90;;;14.70;99.90;;;;;;4955153;23;20434;-96
2021/09/16 04:34:54;;;;;;;245.00;76.60;;;14.90;99.90;;;;;;5102477;23;20460;-96
2021/09/16 04:37:30;;;;;;;152.93;62.53;;;14.80;99.90;;;;;;4951447;23;20438;-96
2021/09/16 04:40:19;;;;;;;;;;;;;;;;;;;;;
2021/09/16 04:43:04;;;;;;;123.82;53.63;;;14.80;99.90;;;;;;4973386;23;20449;-96
2021/09/16 04:45:41;;;;;;;152.75;61.78;;;14.80;99.90;;;;;;4957573;23;20433;-96
2021/09/16 04:51:44;;;;;;;255.35;75.18;;;14.80;99.90;;;;;;5388930;23;20458;-96
2021/09/16 04:55:15;;;;;;;194.17;68.23;;;14.80;99.90;;;;;;4951791;28;20449;-96
2021/09/16 05:00:48;;;;;;;129.02;56.42;;;14.90;99.90;;;;;;5774673;23;20422;-96
2021/09/16 05:08:35;;;;;;;113.93;51.85;;;14.90;99.90;;;;;;4922813;29;20949;-96
2021/09/16 05:11:12;;;;;;;221.65;58.65;;;14.90;99.90;;;;;;4925512;29;20439;-95
2021/09/16 05:14:15;;;;;;;102.93;48.53;;;14.80;99.90;;;;;;4930616;29;20437;-96
2021/09/16 05:53:37;;;;;;;81.05;40.88;;;15.10;99.90;;;;;;2289765;23;22055;31
2021/09/16 07:33:05;;;;;;;21.30;12.65;;;16.10;99.90;;;;;;6068303;23;20392;31
2021/09/16 07:39:54;;;;;;;21.00;16.25;;;16.10;99.90;;;;;;4908128;29;20414;-96
2021/09/16 07:42:55;;;;;;;22.38;13.85;;;16.20;99.90;;;;;;4904616;29;20430;-95
2021/09/16 07:53:02;;;;;;;20.38;12.93;;;16.20;99.90;;;;;;4911663;29;20430;-96
2021/09/16 08:04:27;;;;;;;;;;;;;;;;;;;;;
2021/09/16 09:36:38;;;;;;;6.50;3.57;;;19.90;99.90;;;;;;5221248;23;20471;-95
2021/09/16 10:13:17;;;;;;;4.65;3.22;;;20.70;99.90;;;;;;5345247;23;21858;-94
2021/09/16 10:16:49;;;;;;;4.85;3.20;;;20.40;99.90;;;;;;4911827;29;20420;-94
2021/09/16 10:20:22;;;;;;;11.27;3.50;;;20.10;99.90;;;;;;4807645;29;20421;-94
2021/09/16 10:27:47;;;;;;;5.03;3.67;;;19.50;99.90;;;;;;4801447;29;20483;-93
2021/09/16 10:35:49;;;;;;;4.53;3.60;;;19.70;99.90;;;;;;4776686;30;20445;-96
2021/09/16 11:34:24;;;;;;;5.05;3.00;;;20.30;99.90;;;;;;5167884;23;20440;-96
2021/09/16 11:37:17;;;;;;;6.38;3.35;;;20.60;99.90;;;;;;5037112;23;20394;-96
2021/09/16 11:40:21;;;;;;;5.35;3.15;;;20.30;99.90;;;;;;4927660;29;20441;-96
2021/09/16 11:46:15;;;;;;;5.75;3.35;;;19.80;99.90;;;;;;5009912;23;20427;-96
2021/09/16 12:01:58;;;;;;;5.93;3.63;;;19.60;99.90;;;;;;4935976;29;20455;-88
2021/09/16 12:04:41;;;;;;;7.10;3.40;;;19.80;99.90;;;;;;4935994;29;20478;-88
2021/09/16 12:07:08;;;;;;;7.22;3.50;;;20.00;99.90;;;;;;4936079;29;20503;-88
2021/09/16 12:09:35;;;;;;;5.23;3.20;;;20.30;99.90;;;;;;4936650;29;20424;-88
2021/09/16 12:12:03;;;;;;;5.88;3.53;;;20.80;99.90;;;;;;4937735;29;20507;-89
2021/09/16 12:14:31;;;;;;;7.43;3.78;;;20.90;99.90;;;;;;4936219;29;20430;-89
2021/09/16 12:17:04;;;;;;;6.47;3.33;;;21.00;99.90;;;;;;4935559;29;20439;-88
2021/09/16 12:19:35;;;;;;;6.53;3.30;;;21.00;99.90;;;;;;4941221;29;20463;-89
2021/09/16 12:22:02;;;;;;;4.78;3.47;;;20.70;99.90;;;;;;4936428;29;20447;-90
2021/09/16 12:24:29;;;;;;;5.35;2.95;;;20.30;99.90;;;;;;4939673;29;20424;-92
2021/09/16 12:26:57;;;;;;;4.53;2.90;;;20.10;99.90;;;;;;4935950;29;20423;-91
2021/09/16 12:29:35;;;;;;;7.22;2.80;;;20.20;99.90;;;;;;4935699;29;20438;-90
2021/09/16 12:32:07;;;;;;;5.55;2.65;;;20.30;99.90;;;;;;4938286;29;20436;-91
2021/09/16 12:34:54;;;;;;;9.00;2.90;;;20.30;99.90;;;;;;5039042;23;20455;-96
2021/09/16 12:55:01;;;;;;;5.03;2.30;;;21.30;99.90;;;;;;4964762;29;20437;-96
2021/09/16 12:57:43;;;;;;;6.63;2.20;;;21.30;99.90;;;;;;4946508;29;20481;-95
2021/09/16 13:00:25;;;;;;;5.57;2.17;;;22.20;99.90;;;;;;4952729;29;20861;-96
2021/09/16 13:02:54;;;;;;;4.63;1.90;;;22.20;99.90;;;;;;4949042;29;20442;-96
2021/09/16 13:05:34;;;;;;;3.65;1.90;;;22.40;99.90;;;;;;4951342;29;20564;-95
2021/09/16 13:08:25;;;;;;;2.83;1.80;;;23.30;99.90;;;;;;4949785;29;20505;-94
2021/09/16 13:10:55;;;;;;;4.22;2.20;;;23.60;99.90;;;;;;4948816;29;20422;-96
2021/09/16 13:13:31;;;;;;;6.30;2.40;;;23.10;99.90;;;;;;4953712;28;20441;-96
2021/09/16 13:16:06;;;;;;;5.53;2.03;;;22.50;99.90;;;;;;4949589;29;20469;-94
2021/09/16 13:18:34;;;;;;;4.43;1.80;;;22.20;99.90;;;;;;5047615;23;20440;-96
2021/09/16 13:21:10;;;;;;;3.88;1.90;;;23.20;99.90;;;;;;4964514;28;20480;-96
2021/09/16 13:23:37;;;;;;;3.78;1.80;;;24.40;99.90;;;;;;4959515;29;20488;-96
2021/09/16 13:26:31;;;;;;;4.10;1.90;;;25.00;99.90;;;;;;4955875;28;20425;-95
2021/09/16 13:28:58;;;;;;;3.70;1.55;;;25.50;99.90;;;;;;4961857;29;20647;-96
2021/09/16 13:31:47;;;;;;;;;;;;;;;;;;;;;
2021/09/16 13:34:36;;;;;;;4.03;1.77;;;25.60;99.90;;;;;;4986006;23;20430;-95
2021/09/16 13:37:16;;;;;;;3.65;1.60;;;25.60;99.90;;;;;;4954575;29;20429;-96
2021/09/16 13:39:49;;;;;;;3.05;1.60;;;26.30;99.90;;;;;;4928763;29;20465;-96
2021/09/16 13:43:05;;;;;;;;;;;;;;;;;;;;;
2021/09/16 13:45:42;;;;;;;3.97;1.83;;;24.70;99.90;;;;;;4961334;28;20768;-95
2021/09/16 13:48:24;;;;;;;5.30;1.65;;;24.90;99.90;;;;;;4947688;29;20425;-96
2021/09/16 13:50:53;;;;;;;4.72;1.70;;;25.40;99.90;;;;;;4950516;29;20444;-93
2021/09/16 13:53:38;;;;;;;5.40;1.67;;;25.70;99.90;;;;;;4952521;29;20572;-95
2021/09/16 13:56:10;;;;;;;6.15;1.90;;;25.70;99.90;;;;;;4950693;29;20443;-96
2021/09/16 13:58:37;;;;;;;4.00;1.95;;;25.00;99.90;;;;;;4948597;29;20512;-96
2021/09/16 14:01:56;;;;;;;5.18;2.08;;;24.00;99.90;;;;;;4944008;29;20434;-96
2021/09/16 14:04:24;;;;;;;3.90;2.10;;;22.90;99.90;;;;;;4841471;29;20438;-94
2021/09/16 14:06:51;;;;;;;3.80;1.90;;;22.50;99.90;;;;;;4863466;29;20461;-95
2021/09/16 14:09:18;;;;;;;7.43;1.88;;;23.00;99.90;;;;;;4859770;29;20440;-94
2021/09/16 14:17:18;;;;;;;7.17;2.03;;;24.20;99.90;;;;;;5452867;23;20402;-95
2021/09/16 14:45:21;;;;;;;5.65;2.60;;;20.20;99.90;;;;;;1576228;23;20722;-96
2021/09/16 15:06:09;;;;;;;7.53;3.38;;;19.00;99.90;;;;;;5395418;23;20733;-95
2021/09/16 15:09:05;;;;;;;7.32;3.30;;;18.90;99.90;;;;;;4914620;29;20489;-94
2021/09/16 18:14:45;;;;;;;26.23;16.70;;;15.60;99.90;;;;;;4256915;23;20722;-95
2021/09/16 18:17:24;;;;;;;39.92;22.73;;;15.50;99.90;;;;;;4916351;29;20422;-95
2021/09/16 18:20:28;;;;;;;30.50;18.30;;;15.60;99.90;;;;;;4908784;29;20434;-95
2021/09/16 18:23:09;;;;;;;37.60;22.95;;;15.50;99.90;;;;;;4922394;29;20427;-95
2021/09/16 18:25:43;;;;;;;29.98;18.00;;;15.50;99.90;;;;;;4923241;29;20418;-96
2021/09/16 18:33:05;;;;;;;31.15;19.65;;;15.30;99.90;;;;;;4902483;29;20413;-96
2021/09/16 18:56:18;;;;;;;41.13;26.35;;;15.30;99.90;;;;;;4965423;28;20417;-95
2021/09/16 18:59:38;;;;;;;47.38;27.52;;;15.30;99.90;;;;;;4869202;29;20480;-96
2021/09/16 19:37:52;;;;;;;72.03;36.75;;;15.20;99.90;;;;;;2296176;23;22093;31
2021/09/16 19:40:36;;;;;;;86.95;39.67;;;15.20;99.90;;;;;;4929295;29;20473;-95
2021/09/16 19:43:04;;;;;;;88.47;41.85;;;15.20;99.90;;;;;;4944027;29;20453;-96
2021/09/16 19:45:31;;;;;;;92.57;43.10;;;15.30;99.90;;;;;;4940372;29;20449;-95
2021/09/16 19:47:59;;;;;;;97.53;44.63;;;15.20;99.90;;;;;;4932080;29;20517;-94
2021/09/16 19:50:26;;;;;;;123.93;50.40;;;15.20;99.90;;;;;;4923818;29;20609;-94
2021/09/16 19:52:54;;;;;;;124.10;49.38;;;15.30;99.90;;;;;;4919167;29;20517;-95
2021/09/16 19:55:22;;;;;;;165.82;55.63;;;15.20;99.90;;;;;;4919793;29;20436;-95
2021/09/16 19:57:49;;;;;;;400.33;68.03;;;15.20;99.90;;;;;;4918135;29;20835;-94
2021/09/16 20:00:17;;;;;;;1999.90;164.20;;;15.20;99.90;;;;;;4917502;29;20439;-94
2021/09/16 20:02:44;;;;;;;1999.90;150.88;;;15.20;99.90;;;;;;4922955;29;20460;-93
2021/09/16 20:05:12;;;;;;;1999.90;145.55;;;15.20;99.90;;;;;;4922757;29;20429;-93
2021/09/16 20:07:39;;;;;;;1999.90;129.30;;;15.20;99.90;;;;;;4917687;29;20939;-93
2021/09/16 20:10:08;;;;;;;1999.90;126.30;;;15.20;99.90;;;;;;4919448;29;20517;-96
2021/09/16 20:12:35;;;;;;;1999.90;110.13;;;15.20;99.90;;;;;;4920095;29;20984;-96
2021/09/16 20:15:33;;;;;;;1999.90;107.10;;;15.20;99.90;;;;;;4922025;29;20457;-96
2021/09/16 20:21:51;;;;;;;1999.90;117.70;;;15.20;99.90;;;;;;5060079;23;20460;-96
2021/09/16 20:25:37;;;;;;;;;;;;;;;;;;;;;
2021/09/16 20:29:14;;;;;;;1999.90;84.82;;;15.20;99.90;;;;;;4847921;29;20428;-96
2021/09/16 20:32:15;;;;;;;1999.90;92.03;;;15.20;99.90;;;;;;4898491;23;20446;-96
2021/09/16 20:35:26;;;;;;;1999.90;84.65;;;15.10;99.90;;;;;;4938664;29;20435;-96
2021/09/16 20:38:15;;;;;;;825.38;79.75;;;15.10;99.90;;;;;;4932281;29;20435;-96
2021/09/16 20:41:03;;;;;;;;;;;;;;;;;;;;;
2021/09/16 20:43:43;;;;;;;1261.43;81.97;;;15.10;99.90;;;;;;4943470;29;20443;-96
2021/09/16 20:46:19;;;;;;;882.25;89.82;;;15.10;99.90;;;;;;4940989;29;20436;-96
2021/09/16 20:49:34;;;;;;;;;;;;;;;;;;;;;
2021/09/16 20:52:36;;;;;;;1940.13;134.43;;;15.10;99.90;;;;;;4945658;29;20463;-96
2021/09/16 20:55:45;;;;;;;1999.90;127.18;;;15.10;99.90;;;;;;4881281;29;20436;-96
2021/09/16 20:58:59;;;;;;;1739.50;109.43;;;15.10;99.90;;;;;;4862602;29;20497;-96
2021/09/16 21:01:58;;;;;;;1358.47;96.07;;;15.10;99.90;;;;;;4874252;29;20425;-96
2021/09/16 21:04:45;;;;;;;930.25;83.05;;;15.10;99.90;;;;;;4859236;29;20529;-96
2021/09/16 21:07:18;;;;;;;1269.90;96.87;;;15.10;99.90;;;;;;4854533;29;20885;-96
2021/09/16 21:09:53;;;;;;;1378.20;97.75;;;15.10;99.90;;;;;;4853414;29;20430;-96
2021/09/16 21:12:29;;;;;;;937.17;94.60;;;15.00;99.90;;;;;;4855073;29;20531;-96
2021/09/16 21:15:50;;;;;;;1292.47;96.20;;;15.10;99.90;;;;;;4805160;29;20503;-96
2021/09/16 21:18:40;;;;;;;437.60;63.67;;;15.10;99.90;;;;;;4802658;29;20439;-96
2021/09/16 21:21:44;;;;;;;1925.40;134.32;;;15.00;99.90;;;;;;4811126;29;21077;-96
2021/09/16 23:11:51;;;;;;;0.10;0.10;;;14.50;99.90;;;;;;4681748;30;20661;-96
